createdAt,value
2019-03-20T00:01:04.691Z,126.37
2019-03-20T00:03:35.242Z,124.40
2019-03-20T00:06:06.606Z,124.17
2019-03-20T00:08:37.173Z,125.10
2019-03-20T00:11:09.265Z,122.87
2019-03-20T00:13:39.769Z,124.20
2019-03-20T00:16:10.448Z,123.40
2019-03-20T00:18:41.008Z,122.60
2019-03-20T00:21:11.597Z,125.93
2019-03-20T00:23:42.188Z,126.57
2019-03-20T00:26:12.745Z,124.97
2019-03-20T00:28:43.296Z,124.13
2019-03-20T00:31:13.917Z,123.20
2019-03-20T00:33:44.559Z,124.97
2019-03-20T00:36:15.076Z,123.47
2019-03-20T00:38:45.680Z,125.00
2019-03-20T00:41:16.337Z,126.17
2019-03-20T00:43:46.900Z,125.07
2019-03-20T00:46:17.507Z,123.33
2019-03-20T00:48:48.131Z,125.40
2019-03-20T00:51:18.638Z,124.17
2019-03-20T00:53:49.509Z,127.77
2019-03-20T00:56:20.127Z,125.60
2019-03-20T00:58:50.693Z,124.27
2019-03-20T01:01:21.533Z,127.13
2019-03-20T01:03:52.046Z,126.00
2019-03-20T01:06:22.621Z,123.97
2019-03-20T01:08:53.294Z,125.17
2019-03-20T01:11:23.810Z,124.50
2019-03-20T01:13:54.367Z,124.77
2019-03-20T01:16:25.081Z,124.40
2019-03-20T01:18:55.693Z,125.10
2019-03-20T01:21:27.364Z,126.83
2019-03-20T01:23:57.958Z,126.07
2019-03-20T01:26:28.589Z,125.30
2019-03-20T01:28:59.076Z,123.83
2019-03-20T01:31:29.663Z,125.67
2019-03-20T01:34:00.431Z,124.90
2019-03-20T01:36:31.265Z,127.20
2019-03-20T01:39:01.924Z,124.17
2019-03-20T01:41:37.990Z,124.37
2019-03-20T01:44:06.098Z,124.33
2019-03-20T01:46:36.672Z,124.43
2019-03-20T01:49:07.481Z,124.20
2019-03-20T01:51:38.158Z,126.13
2019-03-20T01:54:08.709Z,124.50
2019-03-20T01:56:39.237Z,123.83
2019-03-20T01:59:10.146Z,123.17
2019-03-20T02:01:40.708Z,123.10
2019-03-20T02:04:11.240Z,125.90
2019-03-20T02:06:41.800Z,124.33
2019-03-20T02:09:12.354Z,125.33
2019-03-20T02:11:42.856Z,126.60
2019-03-20T02:14:13.318Z,125.40
2019-03-20T02:16:43.816Z,123.40
2019-03-20T02:19:14.242Z,126.47
2019-03-20T02:21:44.772Z,124.97
2019-03-20T02:24:15.330Z,124.97
2019-03-20T02:26:46.142Z,124.27
2019-03-20T02:29:16.664Z,123.60
2019-03-20T02:31:47.138Z,124.50
2019-03-20T02:34:17.779Z,125.53
2019-03-20T02:36:48.317Z,124.93
2019-03-20T02:39:18.822Z,125.33
2019-03-20T02:41:49.382Z,127.63
2019-03-20T02:44:19.870Z,124.20
2019-03-20T02:46:50.477Z,123.87
2019-03-20T02:49:21.005Z,125.67
2019-03-20T02:51:51.591Z,123.67
2019-03-20T02:54:22.210Z,125.40
2019-03-20T02:56:52.898Z,126.83
2019-03-20T02:59:23.796Z,126.33
2019-03-20T03:01:54.439Z,125.73
2019-03-20T03:04:24.974Z,127.40
2019-03-20T03:06:55.524Z,124.93
2019-03-20T03:09:25.912Z,125.37
2019-03-20T03:11:56.688Z,125.30
2019-03-20T03:14:27.262Z,125.77
2019-03-20T03:16:57.780Z,126.63
2019-03-20T03:19:28.304Z,126.57
2019-03-20T03:21:58.837Z,126.37
2019-03-20T03:24:29.522Z,125.50
2019-03-20T03:27:00.034Z,124.97
2019-03-20T03:29:30.658Z,128.47
2019-03-20T03:32:01.293Z,124.80
2019-03-20T03:34:31.925Z,121.80
2019-03-20T03:37:02.527Z,123.87
2019-03-20T03:39:33.005Z,123.70
2019-03-20T03:42:03.704Z,124.30
2019-03-20T03:44:34.326Z,124.40
2019-03-20T03:47:05.039Z,124.30
2019-03-20T03:49:35.849Z,122.47
2019-03-20T03:52:06.605Z,124.17
2019-03-20T03:54:37.097Z,123.33
2019-03-20T03:57:07.756Z,123.67
2019-03-20T03:59:38.229Z,123.43
2019-03-20T04:02:08.803Z,125.13
2019-03-20T04:04:39.591Z,123.97
2019-03-20T04:07:10.193Z,124.30
2019-03-20T04:09:40.891Z,124.03
2019-03-20T04:12:12.361Z,127.53
2019-03-20T04:14:42.772Z,123.77
2019-03-20T04:17:22.528Z,124.60
2019-03-20T04:19:53.206Z,125.43
2019-03-20T04:22:23.783Z,124.43
2019-03-20T04:24:54.550Z,123.50
2019-03-20T04:27:25.086Z,129.73
2019-03-20T04:29:55.611Z,125.90
2019-03-20T04:32:26.342Z,125.10
2019-03-20T04:34:57.005Z,123.77
2019-03-20T04:37:27.572Z,125.60
2019-03-20T04:39:58.178Z,124.80
2019-03-20T04:42:28.763Z,126.00
2019-03-20T04:44:59.293Z,125.33
2019-03-20T04:47:29.865Z,124.77
2019-03-20T04:50:00.371Z,124.57
2019-03-20T04:52:31.000Z,123.70
2019-03-20T04:55:02.733Z,127.73
2019-03-20T04:57:33.267Z,123.93
2019-03-20T05:00:03.952Z,123.97
2019-03-20T05:02:34.779Z,125.23
2019-03-20T05:05:06.117Z,125.67
2019-03-20T05:07:36.808Z,123.23
2019-03-20T05:10:09.032Z,124.43
2019-03-20T05:12:39.737Z,125.77
2019-03-20T05:15:10.933Z,124.40
2019-03-20T05:17:42.569Z,124.57
2019-03-20T05:20:13.707Z,123.97
2019-03-20T05:22:44.238Z,127.17
2019-03-20T05:25:14.827Z,125.47
2019-03-20T05:27:45.206Z,124.30
2019-03-20T05:30:15.974Z,125.43
2019-03-20T05:32:47.477Z,125.40
2019-03-20T05:35:18.036Z,124.47
2019-03-20T05:37:48.621Z,124.10
2019-03-20T05:40:19.278Z,124.57
2019-03-20T05:42:49.825Z,124.57
2019-03-20T05:45:20.301Z,125.17
2019-03-20T05:47:50.757Z,124.17
2019-03-20T05:50:21.273Z,124.90
2019-03-20T05:52:51.916Z,126.07
2019-03-20T05:55:22.487Z,124.83
2019-03-20T05:57:52.977Z,125.60
2019-03-20T06:00:23.557Z,123.10
2019-03-20T06:02:54.114Z,123.43
2019-03-20T06:05:24.678Z,123.90
2019-03-20T06:07:55.226Z,124.00
2019-03-20T06:10:25.723Z,124.33
2019-03-20T06:12:56.301Z,124.57
2019-03-20T06:15:27.071Z,122.63
2019-03-20T06:17:57.641Z,122.23
2019-03-20T06:20:28.228Z,122.13
2019-03-20T06:22:58.777Z,122.20
2019-03-20T06:25:29.432Z,121.50
2019-03-20T06:28:00.046Z,122.27
2019-03-20T06:30:30.593Z,123.53
2019-03-20T06:33:01.501Z,122.20
2019-03-20T06:35:32.102Z,123.00
2019-03-20T06:38:02.593Z,121.20
2019-03-20T06:40:33.105Z,125.37
2019-03-20T06:43:03.707Z,123.57
2019-03-20T06:45:34.362Z,121.23
2019-03-20T06:48:04.983Z,123.57
2019-03-20T06:50:35.584Z,121.03
2019-03-20T06:53:06.193Z,122.43
2019-03-20T06:55:36.841Z,120.03
2019-03-20T06:58:07.300Z,123.00
2019-03-20T07:00:57.947Z,120.70
2019-03-20T07:03:35.623Z,122.70
2019-03-20T07:06:25.533Z,121.83
2019-03-20T07:09:00.165Z,122.27
2019-03-20T07:11:28.942Z,122.60
2019-03-20T07:13:59.533Z,122.43
2019-03-20T07:16:31.185Z,122.03
2019-03-20T07:19:01.732Z,121.43
2019-03-20T07:21:32.533Z,122.53
2019-03-20T07:24:03.021Z,122.67
2019-03-20T07:26:33.585Z,121.83
2019-03-20T07:29:04.097Z,123.00
2019-03-20T07:31:34.518Z,121.60
2019-03-20T07:34:05.009Z,121.57
2019-03-20T07:36:35.607Z,119.90
2019-03-20T07:39:09.057Z,122.13
2019-03-20T07:41:39.481Z,120.80
2019-03-20T07:44:09.966Z,121.83
2019-03-20T07:46:40.551Z,123.17
2019-03-20T07:49:11.129Z,121.17
2019-03-20T07:51:41.685Z,120.53
2019-03-20T07:54:12.193Z,121.97
2019-03-20T07:56:42.718Z,120.73
2019-03-20T07:59:13.257Z,122.57
2019-03-20T08:01:43.727Z,120.60
2019-03-20T08:04:14.376Z,121.00
2019-03-20T08:06:44.941Z,119.70
2019-03-20T08:09:15.376Z,120.30
2019-03-20T08:11:45.956Z,120.10
2019-03-20T08:14:16.491Z,119.83
2019-03-20T08:16:46.969Z,120.03
2019-03-20T08:19:18.579Z,119.00
2019-03-20T08:21:49.076Z,120.17
2019-03-20T08:24:19.592Z,119.77
2019-03-20T08:26:50.349Z,118.53
2019-03-20T08:29:20.931Z,117.17
2019-03-20T08:31:51.354Z,116.53
2019-03-20T08:34:21.882Z,117.27
2019-03-20T08:36:52.415Z,118.23
2019-03-20T08:39:23.271Z,120.20
2019-03-20T08:44:41.786Z,117.13
2019-03-20T08:47:12.274Z,117.43
2019-03-20T08:49:42.940Z,119.67
2019-03-20T08:52:13.484Z,119.27
2019-03-20T08:54:43.990Z,119.00
2019-03-20T08:57:14.634Z,120.13
2019-03-20T08:59:45.298Z,117.63
2019-03-20T09:02:15.846Z,118.60
2019-03-20T09:04:46.468Z,119.97
2019-03-20T09:07:17.000Z,118.73
2019-03-20T09:09:47.520Z,123.30
2019-03-20T09:12:33.111Z,118.63
2019-03-20T09:15:03.625Z,121.10
2019-03-20T09:17:37.113Z,117.63
2019-03-20T09:20:08.516Z,119.40
2019-03-20T09:22:38.975Z,121.00
2019-03-20T09:25:10.870Z,118.73
2019-03-20T09:27:41.422Z,117.97
2019-03-20T09:30:15.017Z,116.73
2019-03-20T09:32:45.496Z,119.23
2019-03-20T09:35:16.165Z,119.07
2019-03-20T09:37:51.704Z,116.93
2019-03-20T09:40:18.801Z,114.13
2019-03-20T09:42:49.430Z,115.57
2019-03-20T09:45:20.143Z,119.17
2019-03-20T09:47:50.677Z,114.60
2019-03-20T09:50:21.269Z,116.20
2019-03-20T09:52:51.881Z,115.37
2019-03-20T09:55:22.474Z,114.40
2019-03-20T09:57:53.066Z,117.23
2019-03-20T10:00:24.089Z,118.00
2019-03-20T10:02:54.631Z,118.20
2019-03-20T10:05:25.142Z,114.83
2019-03-20T10:07:55.672Z,118.50
2019-03-20T10:10:27.358Z,117.10
2019-03-20T10:12:58.127Z,118.23
2019-03-20T10:15:28.675Z,118.50
2019-03-20T10:17:59.538Z,116.90
2019-03-20T10:20:30.123Z,117.10
2019-03-20T10:23:00.906Z,116.00
2019-03-20T10:25:31.413Z,118.83
2019-03-20T10:28:02.084Z,117.47
2019-03-20T10:30:32.644Z,117.10
2019-03-20T10:33:03.293Z,118.60
2019-03-20T10:35:33.967Z,116.73
2019-03-20T10:38:04.544Z,118.33
2019-03-20T10:40:36.056Z,116.47
2019-03-20T10:43:06.589Z,118.67
2019-03-20T10:45:37.123Z,118.53
2019-03-20T10:48:07.817Z,119.10
2019-03-20T10:50:38.292Z,119.03
2019-03-20T10:53:08.911Z,120.57
2019-03-20T10:55:39.366Z,119.07
2019-03-20T10:58:09.910Z,119.30
2019-03-20T11:00:41.009Z,119.60
2019-03-20T11:03:12.553Z,119.67
2019-03-20T11:05:43.086Z,117.83
2019-03-20T11:08:13.562Z,118.13
2019-03-20T11:10:44.147Z,119.20
2019-03-20T11:13:14.586Z,122.07
2019-03-20T11:15:45.140Z,118.10
2019-03-20T11:18:15.647Z,118.60
2019-03-20T11:20:46.240Z,121.03
2019-03-20T11:23:16.832Z,118.70
2019-03-20T11:25:47.301Z,122.10
2019-03-20T11:28:17.834Z,120.93
2019-03-20T11:30:48.307Z,120.80
2019-03-20T11:33:18.843Z,120.20
2019-03-20T11:35:49.337Z,122.73
2019-03-20T11:38:19.835Z,122.17
2019-03-20T11:40:50.466Z,120.87
2019-03-20T11:43:20.937Z,121.40
2019-03-20T11:45:51.412Z,121.53
2019-03-20T11:48:21.901Z,120.97
2019-03-20T11:50:52.473Z,121.17
2019-03-20T11:53:23.066Z,120.90
2019-03-20T11:55:53.744Z,119.70
2019-03-20T11:58:24.318Z,120.83
2019-03-20T12:00:55.017Z,120.53
2019-03-20T12:03:25.613Z,120.70
2019-03-20T12:05:56.162Z,122.77
2019-03-20T12:08:27.628Z,123.13
2019-03-20T12:10:58.644Z,122.47
2019-03-20T12:13:29.257Z,121.67
2019-03-20T12:15:59.797Z,120.87
2019-03-20T12:18:32.231Z,121.00
2019-03-20T12:21:03.834Z,121.87
2019-03-20T12:23:34.307Z,121.00
2019-03-20T12:26:05.031Z,121.00
2019-03-20T12:28:35.579Z,118.30
2019-03-20T12:31:06.773Z,122.13
2019-03-20T12:33:37.264Z,122.97
2019-03-20T12:36:07.752Z,118.03
2019-03-20T12:38:38.236Z,118.90
2019-03-20T12:41:08.792Z,119.80
2019-03-20T12:43:39.393Z,118.17
2019-03-20T12:46:09.953Z,120.50
2019-03-20T12:48:40.773Z,117.53
2019-03-20T12:51:11.257Z,117.63
2019-03-20T12:53:41.884Z,120.83
2019-03-20T12:56:12.288Z,117.30
2019-03-20T12:58:42.877Z,120.10
2019-03-20T13:01:13.304Z,119.55
2019-03-20T13:03:43.832Z,117.43
2019-03-20T13:06:14.383Z,117.40
2019-03-20T13:08:44.933Z,118.17
2019-03-20T13:11:15.514Z,116.30
2019-03-20T13:13:46.074Z,118.00
2019-03-20T13:16:16.728Z,116.57
2019-03-20T13:18:47.484Z,117.33
2019-03-20T13:21:18.206Z,120.67
2019-03-20T13:23:48.741Z,119.00
2019-03-20T13:26:19.320Z,120.17
2019-03-20T13:28:49.847Z,123.60
2019-03-20T13:31:21.615Z,119.47
2019-03-20T13:33:52.108Z,118.87
2019-03-20T13:36:22.657Z,120.37
2019-03-20T13:38:53.204Z,120.13
2019-03-20T13:41:24.583Z,119.07
2019-03-20T13:43:55.161Z,120.47
2019-03-20T13:46:27.040Z,120.17
2019-03-20T13:48:57.605Z,120.57
2019-03-20T13:51:28.303Z,119.57
2019-03-20T13:53:58.829Z,119.80
2019-03-20T13:56:29.456Z,119.13
2019-03-20T13:59:02.261Z,120.03
2019-03-20T14:01:33.119Z,121.13
2019-03-20T14:04:03.786Z,121.70
2019-03-20T14:06:35.414Z,121.07
2019-03-20T14:09:11.306Z,120.07
2019-03-20T14:11:41.907Z,123.20
2019-03-20T14:14:12.536Z,121.00
2019-03-20T14:16:43.127Z,118.90
2019-03-20T14:19:13.693Z,121.53
2019-03-20T14:21:44.456Z,121.50
2019-03-20T14:24:15.245Z,118.27
2019-03-20T14:26:45.831Z,119.80
2019-03-20T14:29:16.408Z,119.57
2019-03-20T14:31:46.965Z,118.97
2019-03-20T14:34:17.643Z,119.90
2019-03-20T14:36:48.244Z,122.57
2019-03-20T14:39:18.753Z,121.80
2019-03-20T14:41:49.228Z,128.83
2019-03-20T14:44:19.758Z,123.53
2019-03-20T14:46:50.460Z,119.43
2019-03-20T14:49:20.907Z,120.03
2019-03-20T14:51:51.457Z,121.23
2019-03-20T14:54:21.977Z,120.57
2019-03-20T14:56:52.720Z,119.43
2019-03-20T14:59:23.167Z,120.03
2019-03-20T15:01:53.767Z,119.80
2019-03-20T15:04:24.608Z,118.90
2019-03-20T15:06:55.170Z,121.43
2019-03-20T15:09:25.750Z,120.73
2019-03-20T15:11:56.341Z,123.07
2019-03-20T15:14:27.057Z,122.03
2019-03-20T15:16:57.601Z,122.20
2019-03-20T15:19:29.706Z,121.03
2019-03-20T15:22:00.257Z,121.53
2019-03-20T15:24:30.689Z,122.27
2019-03-20T15:27:01.247Z,121.83
2019-03-20T15:29:31.799Z,119.03
2019-03-20T15:32:02.511Z,122.10
2019-03-20T15:34:33.048Z,118.33
2019-03-20T15:37:03.545Z,123.93
2019-03-20T15:39:34.177Z,119.10
2019-03-20T15:42:04.552Z,120.47
2019-03-20T15:44:35.079Z,120.17
2019-03-20T15:47:05.694Z,119.67
2019-03-20T15:49:36.245Z,120.77
2019-03-20T15:52:06.854Z,119.73
2019-03-20T15:54:37.343Z,121.27
2019-03-20T15:57:07.871Z,118.13
2019-03-20T15:59:38.404Z,120.57
2019-03-20T16:02:08.937Z,120.80
2019-03-20T16:04:39.469Z,121.17
2019-03-20T16:07:10.162Z,120.53
2019-03-20T16:09:40.692Z,120.93
2019-03-20T16:12:11.186Z,120.57
2019-03-20T16:14:41.787Z,121.17
2019-03-20T16:17:12.394Z,121.47
2019-03-20T16:19:45.118Z,124.43
2019-03-20T16:22:15.738Z,121.60
2019-03-20T16:24:46.579Z,122.67
2019-03-20T16:27:17.128Z,120.90
2019-03-20T16:29:47.666Z,122.00
2019-03-20T16:32:18.135Z,122.13
2019-03-20T16:34:48.762Z,121.60
2019-03-20T16:37:19.458Z,121.40
2019-03-20T16:39:50.094Z,122.73
2019-03-20T16:42:20.736Z,122.03
2019-03-20T16:44:51.245Z,124.30
2019-03-20T16:47:21.855Z,122.47
2019-03-20T16:49:52.481Z,124.10
2019-03-20T16:52:23.072Z,122.97
2019-03-20T16:54:53.613Z,121.23
2019-03-20T16:57:24.299Z,121.50
2019-03-20T16:59:54.803Z,123.13
2019-03-20T17:02:25.801Z,121.87
2019-03-20T17:04:56.567Z,123.30
2019-03-20T17:07:27.140Z,121.37
2019-03-20T17:09:57.969Z,122.00
2019-03-20T17:12:28.615Z,121.33
2019-03-20T17:14:59.203Z,122.10
2019-03-20T17:17:29.755Z,125.23
2019-03-20T17:20:00.635Z,123.93
2019-03-20T17:22:31.206Z,122.17
2019-03-20T17:25:02.014Z,123.27
2019-03-20T17:27:32.593Z,122.20
2019-03-20T17:30:04.525Z,123.03
2019-03-20T17:32:35.184Z,123.77
2019-03-20T17:35:06.146Z,122.47
2019-03-20T17:37:38.271Z,122.27
2019-03-20T17:40:10.672Z,122.47
2019-03-20T17:42:41.233Z,125.53
2019-03-20T17:45:12.706Z,125.07
2019-03-20T17:47:43.577Z,123.10
2019-03-20T17:50:19.754Z,124.20
2019-03-20T17:52:50.709Z,121.37
2019-03-20T17:55:21.227Z,124.87
2019-03-20T17:57:51.884Z,122.53
2019-03-20T18:00:38.256Z,124.20
2019-03-20T18:03:09.067Z,121.83
2019-03-20T18:05:40.029Z,123.30
2019-03-20T18:08:10.651Z,122.90
2019-03-20T18:10:41.127Z,124.23
2019-03-20T18:13:11.675Z,123.73
2019-03-20T18:15:42.335Z,123.20
2019-03-20T18:18:13.201Z,124.47
2019-03-20T18:20:43.865Z,120.37
2019-03-20T18:23:14.589Z,122.37
2019-03-20T18:25:45.176Z,120.90
2019-03-20T18:28:15.739Z,122.87
2019-03-20T18:30:46.299Z,122.73
2019-03-20T18:33:16.830Z,125.10
2019-03-20T18:35:47.370Z,122.77
2019-03-20T18:38:17.872Z,124.67
2019-03-20T18:40:48.474Z,123.73
2019-03-20T18:43:19.106Z,123.67
2019-03-20T18:45:49.523Z,123.60
2019-03-20T18:48:20.016Z,123.93
2019-03-20T18:50:50.658Z,122.03
2019-03-20T18:53:25.510Z,124.70
2019-03-20T18:55:56.116Z,124.47
2019-03-20T18:58:26.636Z,122.07
2019-03-20T19:00:57.477Z,123.93
2019-03-20T19:03:29.870Z,123.93
2019-03-20T19:06:06.639Z,123.97
2019-03-20T19:08:37.253Z,125.23
2019-03-20T19:11:07.784Z,124.13
2019-03-20T19:13:38.336Z,124.17
2019-03-20T19:16:09.280Z,125.63
2019-03-20T19:18:39.928Z,122.33
2019-03-20T19:21:10.588Z,125.40
2019-03-20T19:23:41.160Z,123.53
2019-03-20T19:26:12.808Z,123.63
2019-03-20T19:28:43.456Z,126.57
2019-03-20T19:31:14.040Z,123.37
2019-03-20T19:33:44.615Z,122.80
2019-03-20T19:36:15.317Z,124.20
2019-03-20T19:38:46.111Z,125.13
2019-03-20T19:41:16.685Z,126.13
2019-03-20T19:43:47.919Z,123.20
2019-03-20T19:46:18.741Z,127.80
2019-03-20T19:48:49.942Z,126.53
2019-03-20T19:51:21.343Z,125.30
2019-03-20T19:53:52.231Z,125.57
2019-03-20T19:56:23.127Z,125.13
2019-03-20T19:58:55.715Z,124.10
2019-03-20T20:01:27.132Z,125.87
2019-03-20T20:03:58.806Z,128.13
2019-03-20T20:06:29.808Z,125.87
2019-03-20T20:09:04.890Z,125.57
2019-03-20T20:11:35.817Z,127.60
2019-03-20T20:14:06.479Z,127.73
2019-03-20T20:16:40.036Z,125.77
2019-03-20T20:19:10.702Z,126.93
2019-03-20T20:21:41.321Z,129.17
2019-03-20T20:24:12.041Z,125.80
2019-03-20T20:26:42.991Z,127.27
2019-03-20T20:29:14.601Z,124.77
2019-03-20T20:31:45.524Z,128.53
2019-03-20T20:34:16.324Z,128.83
2019-03-20T20:36:46.985Z,124.87
2019-03-20T20:39:19.056Z,124.53
2019-03-20T20:41:49.663Z,128.83
2019-03-20T20:44:20.399Z,124.10
2019-03-20T20:46:51.006Z,128.10
2019-03-20T20:49:21.657Z,127.03
2019-03-20T20:51:52.280Z,125.10
2019-03-20T20:54:23.345Z,125.30
2019-03-20T20:56:54.024Z,126.73
2019-03-20T20:59:24.660Z,125.83
2019-03-20T21:01:55.197Z,125.80
2019-03-20T21:04:27.629Z,126.10
2019-03-20T21:06:58.309Z,125.50
2019-03-20T21:09:29.091Z,122.50
2019-03-20T21:11:59.802Z,122.53
2019-03-20T21:14:30.506Z,125.67
2019-03-20T21:17:01.766Z,124.80
2019-03-20T21:19:33.106Z,124.83
2019-03-20T21:22:48.538Z,126.10
2019-03-20T21:25:21.287Z,124.97
2019-03-20T21:28:51.163Z,126.10
2019-03-20T21:31:35.372Z,125.80
2019-03-20T21:34:42.595Z,126.83
2019-03-20T21:38:12.904Z,128.17
2019-03-20T21:41:11.814Z,125.13
2019-03-20T21:44:31.021Z,125.50
2019-03-20T21:47:35.937Z,126.60
2019-03-20T21:51:04.037Z,125.73
2019-03-20T21:54:18.430Z,126.40
2019-03-20T21:57:13.810Z,126.83
2019-03-20T22:00:22.873Z,125.50
2019-03-20T22:02:54.019Z,129.13
2019-03-20T22:05:31.674Z,126.37
2019-03-20T22:08:02.932Z,126.17
2019-03-20T22:11:25.262Z,124.70
2019-03-20T22:14:04.371Z,124.07
2019-03-20T22:17:10.138Z,125.43
2019-03-20T22:20:19.981Z,125.70
2019-03-20T22:23:35.047Z,127.33
2019-03-20T22:26:42.334Z,125.10
2019-03-20T22:29:26.491Z,125.00
2019-03-20T22:32:26.129Z,125.67
2019-03-20T22:35:43.277Z,127.20
2019-03-20T22:38:20.917Z,127.43
2019-03-20T22:41:31.430Z,125.57
2019-03-20T22:44:05.396Z,125.97
2019-03-20T22:47:18.691Z,125.03
2019-03-20T22:50:51.001Z,125.80
2019-03-20T22:54:04.531Z,124.33
2019-03-20T22:57:08.464Z,124.60
2019-03-20T22:59:40.596Z,124.53
2019-03-20T23:02:50.860Z,127.23
2019-03-20T23:05:22.029Z,124.97
2019-03-20T23:07:53.109Z,125.50
2019-03-20T23:10:24.188Z,127.17
2019-03-20T23:12:55.329Z,126.37
2019-03-20T23:15:26.562Z,127.80
2019-03-20T23:17:57.553Z,126.57
2019-03-20T23:20:28.928Z,125.90
2019-03-20T23:22:59.902Z,131.00
2019-03-20T23:25:30.856Z,128.37
2019-03-20T23:28:01.910Z,129.40
2019-03-20T23:30:33.097Z,129.10
2019-03-20T23:33:04.243Z,129.13
2019-03-20T23:35:35.516Z,126.70
2019-03-20T23:38:06.528Z,126.97
2019-03-20T23:40:37.596Z,127.40
2019-03-20T23:43:08.956Z,128.17
2019-03-20T23:45:40.082Z,127.50
2019-03-20T23:48:18.783Z,127.63
2019-03-20T23:50:53.563Z,127.10
2019-03-20T23:53:24.866Z,128.30
2019-03-20T23:55:57.032Z,128.47
2019-03-20T23:58:28.084Z,128.80
